Terminal Aerodrome Forecast
Issued by NWS

Home | Current Version | Previous Version | Text Only | Print | Product List | Glossary On
Versions: 1 2 3 4 5 6 7 8 9 10 11 12 13 14 15 16 17 18 19 20
000
FTUS44 KMAF 231500 AAB
TAFHOB
TAF AMD
KHOB 231558Z 2316/2412 19014KT P6SM FEW120 SCT250
     FM231800 21018G26KT P6SM FEW150 SCT250
     FM240200 24011KT P6SM SKC=

USA.gov is the U.S. government's official web portal to all federal, state and local government web resources and services.